Impacts TAF Board
For situational awareness. Not to be used for flight planning purposes.
IDs:

KMFR - Medford/Roque Valley, OR, US

Issued at 2320 UTC 05 Dec 2019
Updated at 0114 UTC 06 Dec 2019
Potential Impact None Slight Moderate High
Time0053Z 06/02Z 06/03Z 06/04Z 06/05Z 06/06Z 06/07Z 06/08Z 06/09Z 06/10Z 06/11Z 06/12Z 06/13Z 06/14Z>>
Type OBS PRVL PRVL PRVL PRVL PRVL PRVL PRVL PRVL PRVL PRVL PRVL PRVL PRVL
VIS 8 6 >6 >6 >6 >6 >6 >6 >6 >6 >6 >6 >6 >6
CIG -- -- 70 70 70 70 70 70 70 70 70 70 70 70
Cover CLR SCT OVC OVC OVC OVC OVC OVC OVC OVC OVC OVC OVC OVC
FltCat VFR VFR VFR VFR VFR VFR VFR VFR VFR VFR VFR VFR VFR VFR
WX -- BR -- -- -- -- -- -- -- -- -- -- -- --
WDir 290 VRB 150 150 150 150 150 150 150 150 150 150 150 150
WSpd 4 3 10 10 10 10 10 10 10 10 10 10 10 10
WGst -- -- -- -- -- -- -- -- -- -- -- -- -- --
Raw TAF
KMFR 052320Z 0600/0624 VRB03KT 6SM BR SCT070
  FM060300 15010KT P6SM OVC070
  FM062100 15014G25KT P6SM OVC060


Raw METAR
KMFR 060053Z 29004KT 8SM CLR 06/03 A2997 RMK AO2 SLP156 T00560028
KMFR 052353Z 36004KT 10SM CLR 07/03 A2997 RMK AO2 SLP155 T00670033 10072 20017 56016
KMFR 052253Z 32003KT 6SM HZ CLR 07/03 A2998 RMK AO2 SLP158 T00720033

METAR Board
Radar Display
Forecast Discussion
For situational awareness. Not to be used for flight planning purposes.